Time;durP1;ratioP1;P1;durP2;ratioP2;P2;SDS_P1;SDS_P2;PMS_P1;PMS_P2;Temp;Humidity;BMP_temperature;BMP_pressure;BME280_temperature;BME280_humidity;BME280_pressure;Samples;Min_cycle;Max_cycle;Signal;HPM_P1;HPM_P2
2024/03/10 00:02:04;;;;;;;3.83;2.38;;;20.90;69.50;;;;;;4981731;28;20288;-69
2024/03/10 00:04:30;;;;;;;2.65;2.45;;;21.30;69.90;;;;;;4988465;28;20205;-71
2024/03/10 00:06:58;;;;;;;2.92;2.40;;;20.90;69.50;;;;;;4986268;28;20593;-69
2024/03/10 00:09:25;;;;;;;2.72;2.53;;;20.90;70.40;;;;;;4986121;28;20316;-72
2024/03/10 00:11:52;;;;;;;2.85;2.65;;;20.90;69.80;;;;;;4984081;28;20216;-71
2024/03/10 00:14:19;;;;;;;3.10;2.45;;;21.20;70.10;;;;;;4983118;28;20225;-69
2024/03/10 00:16:46;;;;;;;3.25;2.80;;;20.90;69.70;;;;;;4984071;28;20204;-71
2024/03/10 00:19:14;;;;;;;2.60;2.40;;;20.80;69.60;;;;;;4984825;28;20208;-70
2024/03/10 00:21:41;;;;;;;2.55;2.33;;;20.60;69.60;;;;;;4986960;28;20363;-69
2024/03/10 00:24:08;;;;;;;4.10;3.20;;;20.90;70.10;;;;;;4979463;28;20201;-71
2024/03/10 00:26:35;;;;;;;2.35;2.15;;;20.80;69.90;;;;;;4985509;28;20755;-70
2024/03/10 00:29:02;;;;;;;2.40;2.20;;;21.00;70.10;;;;;;4988369;28;20200;-71
2024/03/10 00:31:30;;;;;;;2.85;2.55;;;21.10;70.30;;;;;;4984665;28;20209;-72
2024/03/10 00:33:57;;;;;;;3.42;2.78;;;21.10;70.30;;;;;;4985224;28;20327;-69
2024/03/10 00:36:25;;;;;;;3.08;2.58;;;20.80;69.90;;;;;;4978132;28;20205;-69
2024/03/10 00:38:52;;;;;;;3.70;1.92;;;20.80;69.90;;;;;;4987049;28;20203;-69
2024/03/10 00:41:19;;;;;;;3.35;2.50;;;20.70;69.90;;;;;;4978864;28;20200;-69
2024/03/10 00:43:46;;;;;;;2.65;2.45;;;20.50;69.50;;;;;;4992072;28;20233;-69
2024/03/10 00:46:13;;;;;;;3.35;2.80;;;20.80;69.80;;;;;;4978533;28;20197;-70
2024/03/10 00:48:40;;;;;;;3.45;2.72;;;20.80;69.90;;;;;;4971163;28;20193;-62
2024/03/10 00:51:06;;;;;;;2.60;2.22;;;20.80;69.90;;;;;;4979721;28;20725;-66
2024/03/10 00:53:34;;;;;;;2.53;2.33;;;20.80;70.10;;;;;;4975804;28;20777;-64
2024/03/10 00:56:02;;;;;;;4.47;2.53;;;21.10;70.50;;;;;;4982862;28;20224;-63
2024/03/10 00:58:28;;;;;;;3.90;2.53;;;20.80;70.00;;;;;;4980008;28;20228;-65
2024/03/10 01:00:55;;;;;;;2.60;2.40;;;20.80;69.90;;;;;;4986508;28;20398;-65
2024/03/10 01:03:22;;;;;;;2.70;2.10;;;20.80;69.90;;;;;;4981501;28;20205;-62
2024/03/10 01:05:51;;;;;;;4.20;2.25;;;21.10;70.30;;;;;;4987919;28;20201;-63
2024/03/10 01:08:18;;;;;;;2.45;2.20;;;20.80;69.80;;;;;;4977876;28;20608;-64
2024/03/10 01:10:48;;;;;;;2.40;2.20;;;20.80;69.60;;;;;;4969157;28;20337;-66
2024/03/10 01:13:15;;;;;;;2.47;2.28;;;20.70;69.30;;;;;;4960298;28;20212;-65
2024/03/10 01:15:42;;;;;;;2.50;2.30;;;20.80;69.60;;;;;;4980551;28;20284;-61
2024/03/10 01:18:09;;;;;;;2.25;2.05;;;20.60;69.20;;;;;;4980675;28;20228;-64
2024/03/10 01:20:36;;;;;;;2.83;2.58;;;20.80;69.30;;;;;;4958241;28;20955;-65
2024/03/10 01:23:04;;;;;;;2.53;2.33;;;20.70;69.40;;;;;;4962109;28;20196;-64
2024/03/10 01:25:31;;;;;;;2.55;1.88;;;20.70;69.40;;;;;;4979449;28;20305;-65
2024/03/10 01:27:59;;;;;;;2.50;2.30;;;20.70;69.50;;;;;;4975187;28;20227;-68
2024/03/10 01:30:26;;;;;;;4.05;1.95;;;20.70;69.40;;;;;;4975591;28;20284;-63
2024/03/10 01:32:53;;;;;;;2.35;2.15;;;20.70;69.50;;;;;;4965249;28;20914;-64
2024/03/10 01:35:21;;;;;;;2.35;2.15;;;20.80;69.80;;;;;;4943712;28;20201;-66
2024/03/10 01:37:48;;;;;;;3.60;2.10;;;20.70;69.50;;;;;;4970553;28;20653;-63
2024/03/10 01:40:15;;;;;;;2.85;2.25;;;21.10;70.00;;;;;;4978880;28;20196;-64
2024/03/10 01:42:42;;;;;;;1.95;1.80;;;20.70;69.50;;;;;;4981493;28;20641;-63
2024/03/10 01:45:10;;;;;;;2.38;2.10;;;20.70;69.50;;;;;;4975504;28;20209;-65
2024/03/10 01:47:37;;;;;;;2.45;2.22;;;20.70;69.50;;;;;;4983236;28;20216;-66
2024/03/10 01:50:06;;;;;;;2.80;2.60;;;20.70;69.60;;;;;;4979204;28;20539;-63
2024/03/10 01:52:34;;;;;;;2.55;2.35;;;20.70;69.40;;;;;;4977724;28;20201;-63
2024/03/10 01:55:01;;;;;;;2.33;2.13;;;20.70;69.40;;;;;;4981687;28;20747;-63
2024/03/10 01:57:28;;;;;;;2.85;2.25;;;20.70;69.60;;;;;;4984169;28;20391;-66
2024/03/10 01:59:57;;;;;;;2.40;2.20;;;20.70;69.40;;;;;;4985110;28;20200;-63
2024/03/10 02:02:26;;;;;;;2.92;2.65;;;20.60;69.10;;;;;;4982563;28;20316;-66
2024/03/10 02:04:53;;;;;;;5.93;2.45;;;20.70;69.30;;;;;;4982234;28;20625;-64
2024/03/10 02:07:20;;;;;;;2.17;1.98;;;20.70;69.20;;;;;;4978846;28;20220;-64
2024/03/10 02:09:47;;;;;;;2.58;2.00;;;21.10;69.60;;;;;;4980178;28;20217;-63
2024/03/10 02:12:15;;;;;;;2.65;2.45;;;20.70;69.20;;;;;;4981185;28;20581;-64
2024/03/10 02:14:42;;;;;;;3.83;2.10;;;20.60;69.00;;;;;;4973887;28;20208;-66
2024/03/10 02:17:10;;;;;;;2.50;2.22;;;20.70;69.10;;;;;;4977942;28;20209;-63
2024/03/10 02:19:39;;;;;;;2.13;1.90;;;21.00;69.40;;;;;;4969880;28;20196;-64
2024/03/10 02:22:08;;;;;;;2.25;2.03;;;20.70;69.20;;;;;;4972798;28;20197;-66
2024/03/10 02:24:39;;;;;;;2.50;2.30;;;20.60;69.00;;;;;;4981926;28;20291;-66
2024/03/10 02:27:15;;;;;;;2.13;1.92;;;20.50;69.00;;;;;;4972113;28;20221;-64
2024/03/10 02:29:59;;;;;;;2.60;2.40;;;20.60;69.10;;;;;;4967343;28;20197;-64
2024/03/10 02:48:50;;;;;;;2.92;2.55;;;21.00;69.30;;;;;;4983799;28;20774;-64
2024/03/10 02:51:17;;;;;;;3.83;3.53;;;20.50;68.60;;;;;;4976372;28;20207;-62
2024/03/10 02:53:46;;;;;;;2.05;1.80;;;20.60;68.70;;;;;;4976750;28;20213;-66
2024/03/10 02:56:13;;;;;;;2.30;2.00;;;20.40;68.50;;;;;;4982524;28;20192;-62
2024/03/10 02:58:41;;;;;;;2.75;2.55;;;20.60;68.70;;;;;;4983150;28;20215;-64
2024/03/10 03:01:09;;;;;;;2.28;2.08;;;20.60;68.70;;;;;;4976276;28;20688;-62
2024/03/10 03:03:35;;;;;;;2.20;2.00;;;20.50;68.50;;;;;;4978677;28;20197;-66
2024/03/10 03:06:02;;;;;;;2.50;2.15;;;20.60;68.60;;;;;;4984110;28;20612;-65
2024/03/10 03:08:28;;;;;;;3.13;2.30;;;20.60;68.70;;;;;;4978737;28;20641;-62
2024/03/10 03:10:55;;;;;;;2.10;1.90;;;20.50;68.50;;;;;;4973295;28;20208;-64
2024/03/10 03:13:21;;;;;;;2.30;2.10;;;21.00;69.10;;;;;;4978178;28;20215;-66
2024/03/10 03:15:51;;;;;;;3.40;2.25;;;20.60;68.60;;;;;;4978741;28;20539;-66
2024/03/10 03:18:17;;;;;;;3.85;2.83;;;20.60;68.60;;;;;;4980070;28;20201;-62
2024/03/10 03:20:44;;;;;;;1.83;1.70;;;20.60;68.60;;;;;;4981578;28;20204;-65
2024/03/10 03:23:11;;;;;;;2.35;2.13;;;20.60;68.50;;;;;;4976182;28;20676;-63
2024/03/10 03:25:36;;;;;;;2.10;1.90;;;20.60;68.60;;;;;;4973186;28;20189;-63
2024/03/10 03:28:06;;;;;;;3.57;2.33;;;20.60;68.60;;;;;;4977269;28;20227;-62
2024/03/10 03:30:33;;;;;;;2.45;1.60;;;20.60;68.60;;;;;;4974173;28;20318;-64
2024/03/10 03:33:01;;;;;;;2.00;1.80;;;20.40;68.40;;;;;;4981269;28;20231;-63
2024/03/10 03:35:28;;;;;;;2.33;1.90;;;20.60;68.50;;;;;;4981801;28;20197;-62
2024/03/10 03:37:55;;;;;;;2.50;2.30;;;20.60;69.20;;;;;;4976833;28;20584;-64
2024/03/10 03:40:23;;;;;;;3.05;2.85;;;20.60;68.60;;;;;;4979149;28;20201;-63
2024/03/10 03:42:49;;;;;;;2.03;1.83;;;20.60;68.40;;;;;;4979379;28;20612;-66
2024/03/10 03:45:17;;;;;;;2.40;1.90;;;20.30;68.00;;;;;;4976830;28;20192;-64
2024/03/10 03:47:44;;;;;;;1.95;1.60;;;20.50;68.20;;;;;;4978021;28;20259;-65
2024/03/10 03:50:12;;;;;;;4.50;2.45;;;20.50;68.30;;;;;;4979704;28;20233;-66
2024/03/10 03:52:39;;;;;;;2.70;2.50;;;20.50;68.20;;;;;;4974780;28;20204;-65
2024/03/10 03:55:07;;;;;;;2.35;1.90;;;20.90;68.70;;;;;;4980739;28;20209;-63
2024/03/10 03:57:33;;;;;;;2.30;2.00;;;20.50;68.10;;;;;;4977787;28;20204;-64
2024/03/10 04:00:01;;;;;;;2.60;2.17;;;20.50;68.20;;;;;;4980409;28;20288;-62
2024/03/10 04:02:27;;;;;;;2.50;2.08;;;20.50;68.30;;;;;;4978464;28;20193;-62
2024/03/10 04:04:54;;;;;;;4.43;2.30;;;20.20;67.90;;;;;;4983410;28;20201;-66
2024/03/10 04:07:23;;;;;;;2.88;2.05;;;20.30;68.10;;;;;;4977687;28;20193;-66
2024/03/10 04:09:49;;;;;;;2.00;1.80;;;20.60;68.40;;;;;;4983841;28;20820;-64
2024/03/10 04:12:16;;;;;;;3.30;2.33;;;20.50;68.20;;;;;;4981329;28;20203;-62
2024/03/10 04:14:43;;;;;;;1.98;1.77;;;20.50;68.20;;;;;;4977629;28;20261;-63
2024/03/10 04:17:10;;;;;;;2.20;1.90;;;20.30;68.00;;;;;;4973391;28;20201;-62
2024/03/10 04:19:37;;;;;;;1.80;1.70;;;20.50;68.20;;;;;;4978882;28;20204;-64
2024/03/10 04:22:09;;;;;;;2.75;2.40;;;20.90;68.60;;;;;;4980227;28;20197;-64
2024/03/10 04:24:37;;;;;;;2.35;1.70;;;20.50;68.10;;;;;;4979189;28;20574;-67
2024/03/10 04:27:07;;;;;;;2.63;2.42;;;20.50;68.10;;;;;;4979765;28;20228;-65
2024/03/10 04:29:34;;;;;;;2.70;2.50;;;20.80;68.60;;;;;;4982570;28;20311;-65
2024/03/10 04:32:00;;;;;;;2.42;2.22;;;20.30;67.90;;;;;;4969352;28;20196;-64
2024/03/10 04:34:27;;;;;;;1.73;1.60;;;20.50;68.00;;;;;;4979237;28;20770;-66
2024/03/10 04:36:54;;;;;;;2.65;2.30;;;20.50;68.00;;;;;;4976300;28;20685;-66
2024/03/10 04:39:22;;;;;;;2.15;1.95;;;20.50;68.00;;;;;;4969607;28;20972;-63
2024/03/10 04:41:53;;;;;;;3.10;2.42;;;20.30;67.80;;;;;;4981471;28;20201;-64
2024/03/10 04:44:20;;;;;;;2.03;1.83;;;20.40;67.90;;;;;;4984895;28;20282;-63
2024/03/10 04:46:47;;;;;;;2.10;1.90;;;20.40;68.00;;;;;;4979608;28;20291;-65
2024/03/10 04:49:15;;;;;;;3.08;2.30;;;20.80;68.40;;;;;;4979482;28;20632;-65
2024/03/10 04:51:42;;;;;;;2.50;2.25;;;20.50;68.00;;;;;;4970432;28;20284;-64
2024/03/10 04:54:09;;;;;;;2.15;1.95;;;20.40;68.00;;;;;;4977643;28;21058;-66
2024/03/10 04:56:36;;;;;;;2.05;1.75;;;20.30;67.80;;;;;;4981985;28;20201;-62
2024/03/10 04:59:05;;;;;;;2.50;2.30;;;20.40;67.90;;;;;;4984178;28;20664;-64
2024/03/10 05:01:32;;;;;;;2.05;1.85;;;20.40;67.90;;;;;;4977087;28;20212;-64
2024/03/10 05:03:59;;;;;;;1.70;1.58;;;20.40;67.90;;;;;;4970297;28;20216;-62
2024/03/10 05:06:26;;;;;;;2.53;2.00;;;20.20;67.60;;;;;;4981949;28;20289;-64
2024/03/10 05:08:52;;;;;;;2.30;2.10;;;20.40;67.90;;;;;;4971287;28;20425;-62
2024/03/10 05:11:19;;;;;;;1.85;1.70;;;20.40;67.90;;;;;;4974647;28;20205;-69
2024/03/10 05:13:46;;;;;;;2.72;1.77;;;20.10;67.60;;;;;;4973227;28;20309;-67
2024/03/10 05:16:16;;;;;;;2.33;2.08;;;20.40;67.80;;;;;;4976077;28;20196;-66
2024/03/10 05:18:43;;;;;;;2.10;1.90;;;20.40;67.80;;;;;;4982717;28;20208;-63
2024/03/10 05:21:09;;;;;;;1.90;1.70;;;20.40;67.70;;;;;;4981860;28;20917;-65
2024/03/10 05:23:38;;;;;;;1.92;1.83;;;20.40;67.70;;;;;;4979528;28;20192;-66
2024/03/10 05:26:05;;;;;;;2.60;2.20;;;20.40;67.70;;;;;;4985014;28;20200;-66
2024/03/10 05:28:32;;;;;;;1.83;1.73;;;20.40;67.70;;;;;;4992806;28;20225;-64
2024/03/10 05:30:59;;;;;;;1.73;1.58;;;20.20;67.50;;;;;;4975019;28;20208;-64
2024/03/10 05:33:27;;;;;;;1.98;1.85;;;20.40;67.80;;;;;;4980677;28;20189;-66
2024/03/10 05:35:54;;;;;;;1.70;1.60;;;20.80;68.20;;;;;;4975559;28;20756;-63
2024/03/10 05:38:21;;;;;;;2.50;2.20;;;20.40;67.80;;;;;;4979086;28;20727;-63
2024/03/10 05:40:48;;;;;;;2.30;2.10;;;20.40;67.70;;;;;;4985360;28;20212;-63
2024/03/10 05:43:14;;;;;;;2.40;2.20;;;20.40;67.60;;;;;;4987830;28;20200;-66
2024/03/10 05:45:41;;;;;;;3.47;2.20;;;20.40;67.60;;;;;;4981994;28;20688;-63
2024/03/10 05:48:10;;;;;;;3.58;2.22;;;20.40;67.70;;;;;;4976391;28;20242;-68
2024/03/10 05:50:39;;;;;;;2.03;1.90;;;20.40;67.70;;;;;;4978579;28;20196;-62
2024/03/10 05:53:05;;;;;;;5.38;2.10;;;20.30;67.50;;;;;;4985842;28;20200;-66
2024/03/10 05:55:32;;;;;;;2.33;2.00;;;20.40;67.70;;;;;;4982615;28;20201;-66
2024/03/10 05:57:59;;;;;;;2.88;2.40;;;20.20;67.40;;;;;;4981439;28;20200;-62
2024/03/10 06:00:26;;;;;;;2.83;2.20;;;20.40;67.60;;;;;;4978891;28;20232;-64
2024/03/10 06:02:53;;;;;;;2.72;2.53;;;20.40;67.60;;;;;;4986444;28;20201;-64
2024/03/10 06:05:19;;;;;;;2.53;2.30;;;20.40;67.60;;;;;;4983274;28;20200;-63
2024/03/10 06:07:47;;;;;;;1.88;1.75;;;20.10;67.20;;;;;;4971308;28;20645;-64
2024/03/10 06:10:14;;;;;;;2.70;2.50;;;20.10;67.20;;;;;;4979083;28;20205;-67
2024/03/10 06:12:42;;;;;;;3.35;2.45;;;20.70;67.90;;;;;;4980982;28;20197;-63
2024/03/10 06:15:10;;;;;;;2.50;2.30;;;20.70;67.90;;;;;;4982075;28;20205;-68
2024/03/10 06:17:40;;;;;;;2.40;2.20;;;20.40;67.60;;;;;;4980656;28;20256;-66
2024/03/10 06:25:46;;;;;;;2.25;1.90;;;20.30;67.50;;;;;;4952142;28;20231;-64
2024/03/10 06:28:13;;;;;;;2.33;2.08;;;20.40;67.50;;;;;;4979585;28;20715;-65
2024/03/10 06:30:40;;;;;;;2.70;2.10;;;20.40;67.50;;;;;;4973888;28;20200;-63
2024/03/10 06:33:07;;;;;;;1.77;1.67;;;20.40;67.50;;;;;;4977211;28;20212;-63
2024/03/10 06:35:34;;;;;;;2.63;2.10;;;20.40;67.50;;;;;;4973976;28;20192;-63
2024/03/10 06:38:03;;;;;;;1.95;1.85;;;20.30;67.50;;;;;;4971155;28;20220;-65
2024/03/10 06:40:29;;;;;;;1.90;1.63;;;20.30;67.40;;;;;;4980226;28;20262;-63
2024/03/10 06:42:56;;;;;;;1.90;1.70;;;20.40;67.50;;;;;;4976945;28;20201;-62
2024/03/10 06:45:25;;;;;;;2.42;2.20;;;20.20;67.30;;;;;;4974625;28;20206;-63
2024/03/10 06:47:52;;;;;;;1.70;1.60;;;20.40;67.40;;;;;;4977952;28;20307;-63
2024/03/10 06:50:19;;;;;;;2.05;1.70;;;20.30;67.30;;;;;;4977644;28;20708;-62
2024/03/10 06:52:46;;;;;;;1.88;1.63;;;20.30;67.30;;;;;;4977830;28;20201;-63
2024/03/10 06:55:14;;;;;;;2.55;2.30;;;20.60;67.50;;;;;;4966175;28;20296;-64
2024/03/10 06:57:41;;;;;;;1.92;1.83;;;20.30;67.30;;;;;;4980721;28;20709;-62
2024/03/10 07:00:12;;;;;;;1.60;1.45;;;20.30;67.30;;;;;;4980703;28;20204;-66
2024/03/10 07:02:39;;;;;;;2.42;2.10;;;20.30;67.30;;;;;;4978851;28;20200;-62
2024/03/10 07:05:06;;;;;;;2.60;2.40;;;20.10;67.10;;;;;;4977245;28;20193;-67
2024/03/10 07:07:33;;;;;;;1.88;1.73;;;20.30;67.40;;;;;;4979441;28;20201;-66
2024/03/10 07:10:00;;;;;;;2.35;2.15;;;20.30;67.30;;;;;;4979982;28;20264;-65
2024/03/10 07:12:28;;;;;;;2.15;1.95;;;20.30;67.30;;;;;;4985267;28;20566;-65
2024/03/10 07:14:55;;;;;;;2.00;1.80;;;20.30;67.30;;;;;;4985948;28;20768;-64
2024/03/10 07:17:22;;;;;;;2.40;2.03;;;20.30;67.30;;;;;;4980951;28;20210;-67
2024/03/10 07:19:49;;;;;;;2.63;1.63;;;20.30;67.10;;;;;;4979754;28;20574;-64
2024/03/10 07:22:16;;;;;;;1.98;1.80;;;20.30;67.10;;;;;;4976244;28;20669;-67
2024/03/10 07:24:42;;;;;;;1.92;1.80;;;20.20;67.00;;;;;;4986046;28;20197;-63
2024/03/10 07:27:10;;;;;;;2.35;2.15;;;20.20;67.10;;;;;;4985493;28;20196;-63
2024/03/10 07:29:38;;;;;;;2.28;2.08;;;20.30;67.50;;;;;;4986288;28;20247;-63
2024/03/10 07:32:05;;;;;;;2.65;2.30;;;20.30;67.50;;;;;;4983384;28;20780;-66
2024/03/10 07:34:32;;;;;;;1.70;1.60;;;20.30;67.60;;;;;;4977385;28;20266;-65
2024/03/10 07:37:00;;;;;;;2.60;2.40;;;20.30;67.50;;;;;;4977339;28;20849;-65
2024/03/10 07:39:28;;;;;;;2.58;1.70;;;20.30;67.50;;;;;;4982560;28;20201;-65
2024/03/10 07:41:54;;;;;;;2.00;1.73;;;20.30;67.50;;;;;;4976960;28;20204;-67
2024/03/10 07:44:21;;;;;;;2.00;1.70;;;20.20;67.40;;;;;;4974864;28;20189;-67
2024/03/10 07:46:49;;;;;;;2.05;1.73;;;20.70;67.90;;;;;;4972341;28;20209;-63
2024/03/10 07:49:16;;;;;;;1.92;1.80;;;20.40;67.60;;;;;;4978026;28;20221;-64
2024/03/10 07:51:43;;;;;;;2.22;2.03;;;20.40;67.60;;;;;;4978054;28;20267;-66
2024/03/10 07:54:10;;;;;;;2.60;2.40;;;20.40;67.60;;;;;;4980528;28;20205;-64
2024/03/10 07:56:37;;;;;;;2.10;1.90;;;20.40;67.50;;;;;;4980921;28;20215;-64
2024/03/10 07:59:04;;;;;;;2.10;1.90;;;20.40;67.60;;;;;;4982422;28;20209;-66
2024/03/10 08:01:30;;;;;;;2.72;2.30;;;20.40;67.50;;;;;;4977922;28;20215;-63
2024/03/10 08:03:58;;;;;;;2.00;1.80;;;20.40;67.50;;;;;;4972181;28;20550;-67
2024/03/10 08:06:25;;;;;;;2.28;1.98;;;20.40;67.50;;;;;;4982277;28;20211;-66
2024/03/10 08:08:52;;;;;;;2.38;2.17;;;20.40;67.50;;;;;;4983502;28;20762;-67
2024/03/10 08:11:21;;;;;;;2.20;1.48;;;20.20;67.40;;;;;;4984759;28;20287;-67
2024/03/10 08:13:48;;;;;;;1.92;1.80;;;20.50;67.80;;;;;;4987497;28;20257;-64
2024/03/10 08:16:15;;;;;;;2.00;1.73;;;20.50;67.90;;;;;;4980054;28;20203;-64
2024/03/10 08:18:43;;;;;;;2.03;1.88;;;20.50;67.90;;;;;;4984439;28;20200;-64
2024/03/10 08:21:11;;;;;;;1.83;1.73;;;20.60;68.10;;;;;;4977321;28;20440;-67
2024/03/10 08:23:38;;;;;;;2.38;1.95;;;20.40;67.90;;;;;;4982815;28;20360;-64
2024/03/10 08:26:05;;;;;;;1.95;1.75;;;20.50;68.00;;;;;;4980053;28;20209;-69
2024/03/10 08:28:31;;;;;;;2.03;1.83;;;20.40;67.90;;;;;;4979348;28;20610;-63
2024/03/10 08:30:59;;;;;;;3.28;2.70;;;20.50;68.00;;;;;;4984705;28;20205;-68
2024/03/10 08:33:26;;;;;;;2.20;2.00;;;20.50;67.90;;;;;;4981948;28;20414;-66
2024/03/10 08:35:53;;;;;;;2.20;2.00;;;20.50;68.00;;;;;;4980838;28;20212;-66
2024/03/10 08:38:21;;;;;;;2.58;2.38;;;20.70;68.20;;;;;;4974050;28;20741;-69
2024/03/10 08:40:47;;;;;;;1.70;1.60;;;20.60;68.00;;;;;;4982836;28;20200;-66
2024/03/10 08:43:14;;;;;;;2.20;2.00;;;20.70;68.10;;;;;;4984299;28;20215;-67
2024/03/10 08:45:42;;;;;;;2.25;1.88;;;20.60;67.90;;;;;;4980794;28;20200;-65
2024/03/10 08:48:09;;;;;;;2.75;2.55;;;20.60;67.90;;;;;;4982407;28;20748;-65
2024/03/10 08:50:36;;;;;;;2.40;1.77;;;20.60;67.90;;;;;;4980617;28;20259;-68
2024/03/10 08:53:04;;;;;;;2.45;1.60;;;20.60;67.90;;;;;;4977994;28;20577;-66
2024/03/10 08:55:33;;;;;;;1.50;1.40;;;20.60;67.80;;;;;;4982932;28;20292;-64
2024/03/10 08:58:00;;;;;;;3.63;2.22;;;20.60;67.80;;;;;;4982042;28;20240;-69
2024/03/10 09:00:27;;;;;;;2.20;2.00;;;20.60;67.80;;;;;;4986145;28;20201;-70
2024/03/10 09:02:53;;;;;;;2.30;2.10;;;20.60;67.80;;;;;;4982862;28;20201;-64
2024/03/10 09:05:20;;;;;;;2.50;2.22;;;20.60;67.70;;;;;;4978163;28;20205;-66
2024/03/10 09:07:49;;;;;;;2.00;1.80;;;20.60;67.70;;;;;;4959993;28;20214;-68
2024/03/10 09:10:16;;;;;;;2.05;1.85;;;20.60;67.70;;;;;;4972868;28;20235;-69
2024/03/10 09:12:44;;;;;;;2.30;2.10;;;20.60;67.70;;;;;;4973538;28;20209;-71
2024/03/10 09:15:12;;;;;;;2.13;1.80;;;20.60;67.70;;;;;;4980323;28;20200;-67
2024/03/10 09:17:41;;;;;;;3.00;2.13;;;20.60;67.60;;;;;;4980384;28;20213;-64
2024/03/10 09:20:11;;;;;;;1.80;1.70;;;20.50;67.60;;;;;;4982296;28;20378;-68
2024/03/10 09:22:40;;;;;;;2.08;1.88;;;20.60;67.60;;;;;;4980782;28;20299;-65
2024/03/10 09:25:12;;;;;;;2.15;1.70;;;20.60;67.60;;;;;;4981306;28;20204;-70
2024/03/10 09:27:40;;;;;;;1.80;1.70;;;20.60;67.60;;;;;;4975804;28;20861;-68
2024/03/10 09:30:13;;;;;;;1.73;1.63;;;20.60;67.60;;;;;;4981816;28;20217;-66
2024/03/10 09:32:42;;;;;;;3.33;2.10;;;20.60;67.60;;;;;;4974310;28;20216;-67
2024/03/10 09:35:10;;;;;;;1.80;1.60;;;20.70;67.80;;;;;;4979466;28;20204;-70
2024/03/10 09:37:37;;;;;;;4.25;2.08;;;20.60;67.60;;;;;;4981124;28;20674;-67
2024/03/10 09:40:06;;;;;;;2.03;1.83;;;20.60;67.60;;;;;;4985902;28;20645;-66
2024/03/10 09:42:34;;;;;;;4.18;2.10;;;20.70;67.70;;;;;;4982834;28;20696;-67
2024/03/10 09:45:01;;;;;;;2.70;2.30;;;20.70;67.70;;;;;;4982795;28;20212;-69
2024/03/10 09:47:29;;;;;;;2.30;2.10;;;20.70;67.70;;;;;;4974099;28;20205;-70
2024/03/10 09:49:56;;;;;;;2.38;2.17;;;20.40;67.30;;;;;;4975560;28;20224;-65
2024/03/10 09:52:23;;;;;;;2.10;1.90;;;20.70;67.70;;;;;;4971584;28;20203;-71
2024/03/10 09:54:51;;;;;;;2.55;1.95;;;20.90;67.80;;;;;;4981373;28;20894;-70
2024/03/10 09:57:18;;;;;;;3.08;2.45;;;20.70;67.60;;;;;;4978031;28;20204;-67
2024/03/10 09:59:47;;;;;;;2.47;1.77;;;20.60;67.50;;;;;;4982535;28;20204;-69
2024/03/10 10:02:34;;;;;;;2.80;2.60;;;20.70;67.60;;;;;;4979691;28;20803;-70
2024/03/10 10:05:06;;;;;;;3.05;2.53;;;21.10;68.10;;;;;;4978190;28;20234;-73
2024/03/10 10:07:34;;;;;;;3.10;2.80;;;20.70;67.80;;;;;;4969155;28;20340;-67
2024/03/10 10:10:01;;;;;;;3.08;2.55;;;20.70;67.80;;;;;;4980268;28;20445;-70
2024/03/10 10:12:28;;;;;;;3.70;2.50;;;20.80;67.90;;;;;;4973309;28;20205;-69
2024/03/10 10:14:54;;;;;;;7.15;2.90;;;20.70;67.90;;;;;;4980139;28;20625;-69
2024/03/10 10:17:22;;;;;;;2.83;2.33;;;20.70;67.90;;;;;;4981328;28;20204;-70
2024/03/10 10:19:51;;;;;;;2.97;2.15;;;20.70;68.10;;;;;;4981120;28;20204;-70
2024/03/10 10:22:17;;;;;;;3.75;3.03;;;20.70;68.00;;;;;;4976824;28;20598;-71
2024/03/10 10:24:45;;;;;;;3.63;2.85;;;20.70;68.10;;;;;;4977915;28;20200;-70
2024/03/10 10:27:13;;;;;;;2.40;2.20;;;20.70;68.00;;;;;;4976334;28;20192;-70
2024/03/10 10:29:50;;;;;;;4.65;2.25;;;20.70;68.00;;;;;;4977622;28;20229;-70
2024/03/10 10:32:21;;;;;;;5.10;2.60;;;20.80;68.10;;;;;;4982005;28;20811;-71
2024/03/10 10:34:51;;;;;;;3.22;2.80;;;20.80;68.10;;;;;;4978059;28;20193;-69
2024/03/10 10:37:19;;;;;;;2.60;2.40;;;20.50;67.70;;;;;;4979739;28;20208;-70
2024/03/10 10:39:45;;;;;;;3.70;2.53;;;20.80;68.00;;;;;;4983151;28;20271;-69
2024/03/10 10:42:13;;;;;;;4.15;3.35;;;20.80;68.10;;;;;;4981915;28;20688;-70
2024/03/10 10:44:41;;;;;;;2.15;1.95;;;20.80;68.10;;;;;;4982238;28;20666;-69
2024/03/10 10:47:09;;;;;;;3.35;2.55;;;21.10;68.40;;;;;;4980793;28;20300;-70
2024/03/10 10:49:36;;;;;;;3.75;2.35;;;21.10;68.20;;;;;;4980719;28;20640;-69
2024/03/10 10:52:05;;;;;;;2.40;2.20;;;20.90;67.90;;;;;;4979043;28;20206;-70
2024/03/10 10:54:32;;;;;;;3.63;2.83;;;20.90;67.90;;;;;;4983878;28;20681;-69
2024/03/10 10:57:00;;;;;;;2.65;2.45;;;20.90;68.70;;;;;;4981667;28;20669;-69
2024/03/10 10:59:27;;;;;;;4.05;2.90;;;20.90;68.70;;;;;;4980859;28;20197;-71
2024/03/10 11:02:13;;;;;;;2.92;2.55;;;20.90;67.80;;;;;;4977716;28;20211;-70
2024/03/10 11:04:42;;;;;;;3.60;2.95;;;20.90;67.80;;;;;;4980933;28;21121;-70
2024/03/10 11:07:13;;;;;;;5.40;3.17;;;20.70;67.60;;;;;;4973591;28;20266;-69
2024/03/10 11:09:40;;;;;;;3.85;2.95;;;20.90;67.80;;;;;;4982635;28;20248;-66
2024/03/10 11:12:18;;;;;;;9.18;7.65;;;20.90;67.70;;;;;;4970583;28;20284;-67
2024/03/10 11:14:48;;;;;;;12.48;11.23;;;20.80;65.30;;;;;;4982566;28;20605;-63
2024/03/10 11:17:16;;;;;;;10.82;9.73;;;20.70;62.90;;;;;;4977467;28;20199;-73
2024/03/10 11:19:48;;;;;;;8.07;7.38;;;20.50;61.70;;;;;;4970560;28;20242;-75
2024/03/10 11:22:20;;;;;;;7.65;6.85;;;20.70;63.90;;;;;;4965723;28;20787;-72
2024/03/10 11:25:04;;;;;;;7.55;6.45;;;20.70;64.50;;;;;;4970627;28;20973;-72
2024/03/10 11:27:37;;;;;;;8.38;5.97;;;20.80;65.10;;;;;;4960214;28;20219;-73
2024/03/10 11:30:40;;;;;;;7.15;6.40;;;20.80;65.40;;;;;;4977774;28;20244;-68
2024/03/10 11:33:08;;;;;;;7.30;5.70;;;20.90;65.60;;;;;;4973573;28;20207;-65
2024/03/10 11:35:36;;;;;;;6.10;5.60;;;20.80;65.70;;;;;;4972446;28;20213;-67
2024/03/10 11:38:04;;;;;;;5.50;5.00;;;21.10;66.30;;;;;;4979312;28;20204;-70
2024/03/10 11:40:31;;;;;;;8.00;6.72;;;20.80;66.10;;;;;;4963183;28;20359;-70
2024/03/10 11:42:58;;;;;;;6.15;5.50;;;20.90;66.40;;;;;;4972628;28;20653;-69
2024/03/10 11:45:25;;;;;;;8.55;6.03;;;21.20;66.90;;;;;;4978537;28;20283;-72
2024/03/10 11:47:52;;;;;;;7.07;5.88;;;20.90;66.60;;;;;;4980262;28;21046;-68
2024/03/10 11:50:19;;;;;;;7.03;5.30;;;20.70;66.60;;;;;;4977665;28;20235;-72
2024/03/10 11:52:46;;;;;;;6.30;5.70;;;21.00;67.10;;;;;;4965650;28;20287;-69
2024/03/10 11:55:14;;;;;;;9.18;5.40;;;21.00;67.10;;;;;;4977457;28;20470;-68
2024/03/10 11:57:41;;;;;;;9.52;5.65;;;21.00;67.20;;;;;;4976465;28;21317;-70
2024/03/10 12:00:09;;;;;;;8.85;5.47;;;21.00;67.30;;;;;;4977311;28;20923;-66
2024/03/10 12:02:36;;;;;;;5.97;4.90;;;21.00;67.40;;;;;;4978227;28;20749;-71
2024/03/10 12:05:05;;;;;;;7.85;6.72;;;21.30;67.90;;;;;;4977900;28;20193;-68
2024/03/10 12:07:33;;;;;;;7.70;5.13;;;21.10;67.70;;;;;;4969100;28;20208;-72
2024/03/10 12:10:00;;;;;;;6.22;5.00;;;21.10;67.80;;;;;;4976842;28;20421;-67
2024/03/10 12:12:32;;;;;;;8.00;5.57;;;21.30;68.00;;;;;;4973423;28;20194;-69
2024/03/10 12:14:59;;;;;;;10.45;5.40;;;20.90;67.60;;;;;;4980405;28;20201;-75
2024/03/10 12:17:26;;;;;;;6.10;5.40;;;21.20;68.00;;;;;;4973636;28;20220;-75
2024/03/10 12:19:52;;;;;;;5.30;4.80;;;21.20;68.00;;;;;;4979058;28;20208;-72
2024/03/10 12:22:19;;;;;;;6.15;4.90;;;21.20;68.00;;;;;;4979453;28;20201;-72
2024/03/10 12:24:46;;;;;;;5.78;5.15;;;21.20;68.00;;;;;;4976934;28;20750;-71
2024/03/10 12:27:14;;;;;;;5.93;5.22;;;21.30;68.10;;;;;;4964011;28;20196;-69
2024/03/10 12:29:46;;;;;;;7.20;5.72;;;21.30;68.10;;;;;;4966242;28;20201;-70
2024/03/10 12:32:13;;;;;;;5.75;4.55;;;21.40;68.30;;;;;;4948472;28;20197;-67
2024/03/10 12:34:40;;;;;;;7.75;4.70;;;21.30;68.20;;;;;;4966837;28;20217;-66
2024/03/10 12:37:07;;;;;;;9.15;5.38;;;21.50;68.40;;;;;;4975536;28;21144;-66
2024/03/10 12:39:34;;;;;;;5.28;4.68;;;21.40;68.30;;;;;;4970770;28;20202;-74
2024/03/10 12:42:01;;;;;;;6.75;5.50;;;21.40;68.30;;;;;;4979394;28;20212;-68
2024/03/10 12:44:28;;;;;;;6.50;5.13;;;21.10;67.90;;;;;;4973224;28;20197;-66
2024/03/10 12:46:56;;;;;;;5.77;4.73;;;21.40;68.20;;;;;;4978897;28;20464;-67
2024/03/10 12:49:23;;;;;;;5.75;4.82;;;21.20;68.00;;;;;;4967270;28;20479;-69
2024/03/10 12:51:49;;;;;;;5.50;5.00;;;21.40;68.20;;;;;;4976745;28;20231;-68
2024/03/10 12:54:16;;;;;;;6.70;4.87;;;21.40;68.20;;;;;;4978016;28;20465;-72
2024/03/10 12:56:43;;;;;;;4.87;4.00;;;21.50;68.30;;;;;;4977699;28;20466;-73
2024/03/10 12:59:10;;;;;;;6.53;5.60;;;21.50;68.20;;;;;;4980067;28;20459;-72
2024/03/10 13:01:37;;;;;;;6.53;4.63;;;21.50;68.30;;;;;;4967109;28;20574;-70
2024/03/10 13:04:06;;;;;;;5.57;5.05;;;21.40;68.20;;;;;;4980983;28;20464;-72
2024/03/10 13:06:32;;;;;;;6.05;4.65;;;21.50;68.20;;;;;;4970684;28;20198;-68
2024/03/10 13:08:59;;;;;;;4.80;4.40;;;21.50;68.30;;;;;;4961805;28;20205;-66
2024/03/10 13:11:26;;;;;;;5.85;5.25;;;21.50;68.20;;;;;;4970281;28;20228;-67